createdAt,value
2017-05-22T00:00:23.794Z,1007.49
2017-05-22T00:02:39.229Z,1007.47
2017-05-22T00:05:03.075Z,1007.44
2017-05-22T00:07:26.936Z,1007.39
2017-05-22T00:09:50.776Z,1007.4
2017-05-22T00:13:42.520Z,1007.28
2017-05-22T00:15:52.872Z,1007.3
2017-05-22T00:17:59.890Z,1007.32
2017-05-22T00:20:23.757Z,1007.31
2017-05-22T00:22:47.641Z,1007.29
2017-05-22T00:24:57.989Z,1007.25
2017-05-22T00:27:13.444Z,1007.19
2017-05-22T00:29:37.304Z,1007.19
2017-05-22T00:32:01.181Z,1007.16
2017-05-22T00:34:16.589Z,1007.17
2017-05-22T00:36:09.968Z,1007.15
2017-05-22T00:38:33.832Z,1007.15
2017-05-22T00:40:57.688Z,1007.17
2017-05-22T00:43:21.550Z,1007.18
2017-05-22T00:45:45.383Z,1007.13
2017-05-22T00:48:09.194Z,1007.14
2017-05-22T00:50:33.039Z,1007.16
2017-05-22T00:52:34.878Z,1007.14
2017-05-22T00:54:58.727Z,1007.12
2017-05-22T00:57:00.532Z,1007.1
2017-05-22T00:59:24.385Z,1007.13
2017-05-22T01:01:48.224Z,1007.11
2017-05-22T01:03:50.068Z,1007.02
2017-05-22T01:06:05.502Z,1007.08
2017-05-22T01:08:20.879Z,1007.04
2017-05-22T01:12:21.968Z,1007.02
2017-05-22T01:14:46.793Z,1007.01
2017-05-22T01:17:02.199Z,1007.02
2017-05-22T01:19:26.003Z,1007
2017-05-22T01:21:41.380Z,1007.03
2017-05-22T01:24:05.244Z,1007.03
2017-05-22T01:26:29.077Z,1007.01
2017-05-22T01:28:52.861Z,1006.98
2017-05-22T01:31:16.660Z,1006.96
2017-05-22T01:33:40.475Z,1006.95
2017-05-22T01:36:04.218Z,1006.92
2017-05-22T01:38:19.617Z,1006.89
2017-05-22T01:40:21.441Z,1006.87
2017-05-22T01:42:45.261Z,1006.85
2017-05-22T01:45:09.100Z,1006.82
2017-05-22T01:47:24.424Z,1006.86
2017-05-22T01:49:48.153Z,1006.82
2017-05-22T01:52:11.937Z,1006.79
2017-05-22T01:54:35.741Z,1006.78
2017-05-22T01:56:51.127Z,1006.81
2017-05-22T01:59:14.936Z,1006.76
2017-05-22T02:01:38.749Z,1006.8
2017-05-22T02:04:02.553Z,1006.79
2017-05-22T02:06:26.299Z,1006.77
2017-05-22T02:08:36.637Z,1006.79
2017-05-22T02:11:00.427Z,1006.77
2017-05-22T02:13:24.177Z,1006.73
2017-05-22T02:15:34.512Z,1006.73
2017-05-22T02:17:58.326Z,1006.74
2017-05-22T02:20:13.672Z,1006.73
2017-05-22T02:22:29.006Z,1006.73
2017-05-22T02:24:52.713Z,1006.76
2017-05-22T02:27:08.034Z,1006.77
2017-05-22T02:29:23.307Z,1006.72
2017-05-22T02:31:38.640Z,1006.72
2017-05-22T02:34:02.376Z,1006.65
2017-05-22T02:36:17.708Z,1006.68
2017-05-22T02:38:16.208Z,1006.67
2017-05-22T02:40:39.932Z,1006.64
2017-05-22T02:43:03.689Z,1006.6
2017-05-22T02:45:27.440Z,1006.6
2017-05-22T02:47:51.168Z,1006.58
2017-05-22T02:50:06.480Z,1006.57
2017-05-22T02:52:30.190Z,1006.57
2017-05-22T02:54:53.879Z,1006.59
2017-05-22T02:57:17.620Z,1006.58
2017-05-22T02:59:41.348Z,1006.55
2017-05-22T03:02:05.070Z,1006.5
2017-05-22T03:04:28.796Z,1006.5
2017-05-22T03:06:44.099Z,1006.51
2017-05-22T03:09:07.759Z,1006.53
2017-05-22T03:11:31.497Z,1006.53
2017-05-22T03:13:55.227Z,1006.51
2017-05-22T03:16:18.962Z,1006.48
2017-05-22T03:18:34.263Z,1006.49
2017-05-22T03:20:57.987Z,1006.54
2017-05-22T03:23:21.663Z,1006.55
2017-05-22T03:25:45.358Z,1006.5
2017-05-22T03:28:09.063Z,1006.56
2017-05-22T03:30:32.776Z,1006.51
2017-05-22T03:32:57.447Z,1006.51
2017-05-22T03:35:21.135Z,1006.53
2017-05-22T03:37:44.831Z,1006.52
2017-05-22T03:40:00.127Z,1006.5
2017-05-22T03:43:51.689Z,1006.53
2017-05-22T03:46:15.377Z,1006.55
2017-05-22T03:48:39.028Z,1006.5
2017-05-22T03:51:02.694Z,1006.48
2017-05-22T03:53:26.367Z,1006.48
2017-05-22T03:55:42.682Z,1006.5
2017-05-22T03:58:06.373Z,1006.46
2017-05-22T04:00:16.705Z,1006.47
2017-05-22T04:02:40.405Z,1006.44
2017-05-22T04:05:04.102Z,1006.43
2017-05-22T04:07:27.786Z,1006.42
2017-05-22T04:09:51.498Z,1006.44
2017-05-22T04:12:06.782Z,1006.48
2017-05-22T04:14:30.482Z,1006.5
2017-05-22T04:16:54.210Z,1006.53
2017-05-22T04:19:17.941Z,1006.51
2017-05-22T04:21:41.707Z,1006.53
2017-05-22T04:24:05.485Z,1006.57
2017-05-22T04:26:29.266Z,1006.61
2017-05-22T04:28:53.070Z,1006.59
2017-05-22T04:31:16.860Z,1006.58
2017-05-22T04:33:40.717Z,1006.62
2017-05-22T04:36:04.651Z,1006.69
2017-05-22T04:38:28.686Z,1006.67
2017-05-22T04:40:52.809Z,1006.67
2017-05-22T04:43:08.551Z,1006.71
2017-05-22T04:45:32.759Z,1006.7
2017-05-22T04:47:57.014Z,1006.71
2017-05-22T04:50:21.369Z,1006.82
2017-05-22T04:52:45.814Z,1006.82
2017-05-22T04:55:10.324Z,1006.76
2017-05-22T04:57:34.932Z,1006.75
2017-05-22T04:59:51.130Z,1006.91
2017-05-22T05:02:15.848Z,1006.86
2017-05-22T05:04:40.721Z,1006.84
2017-05-22T05:07:05.711Z,1006.91
2017-05-22T05:09:30.822Z,1006.92
2017-05-22T05:11:56.019Z,1006.97
2017-05-22T05:14:12.770Z,1006.96
2017-05-22T05:16:38.158Z,1007.03
2017-05-22T05:19:03.651Z,1007.07
2017-05-22T05:21:20.697Z,1007
2017-05-22T05:23:46.345Z,1007.02
2017-05-22T05:26:12.052Z,1007.06
2017-05-22T05:28:37.869Z,1007.05
2017-05-22T05:31:03.729Z,1007.03
2017-05-22T05:33:21.049Z,1007.09
2017-05-22T05:35:47.009Z,1007.11
2017-05-22T05:38:13.078Z,1007.12
2017-05-22T05:40:39.151Z,1007.16
2017-05-22T05:42:56.734Z,1007.11
2017-05-22T05:45:22.920Z,1007.14
2017-05-22T05:47:49.146Z,1007.13
2017-05-22T05:50:15.412Z,1007.16
2017-05-22T05:52:42.265Z,1007.14
2017-05-22T05:54:59.975Z,1007.15
2017-05-22T05:57:11.118Z,1007.14
2017-05-22T05:59:37.540Z,1007.13
2017-05-22T06:01:48.674Z,1007.14
2017-05-22T06:04:15.130Z,1007.1
2017-05-22T06:08:18.152Z,1007.12
2017-05-22T06:10:36.144Z,1007.11
2017-05-22T06:13:02.683Z,1007.15
2017-05-22T06:15:29.259Z,1007.11
2017-05-22T06:17:55.911Z,1007.13
2017-05-22T06:20:22.616Z,1007.13
2017-05-22T06:22:49.304Z,1007.11
2017-05-22T06:25:16.031Z,1007.11
2017-05-22T06:27:42.780Z,1007.09
2017-05-22T06:30:09.556Z,1007.1
2017-05-22T06:32:36.351Z,1007.01
2017-05-22T06:35:03.142Z,1007.12
2017-05-22T06:37:14.388Z,1007.18
2017-05-22T06:39:41.271Z,1007.19
2017-05-22T06:42:08.181Z,1007.19
2017-05-22T06:44:35.161Z,1007.17
2017-05-22T06:46:37.806Z,1007.21
2017-05-22T06:49:04.853Z,1007.05
2017-05-22T06:51:31.768Z,1006.97
2017-05-22T06:53:34.358Z,1006.96
2017-05-22T06:56:01.168Z,1006.98
2017-05-22T06:58:27.833Z,1006.97
2017-05-22T07:00:54.355Z,1006.9
2017-05-22T07:03:20.724Z,1006.86
2017-05-22T07:05:46.919Z,1006.86
2017-05-22T07:08:12.900Z,1006.89
2017-05-22T07:10:38.749Z,1006.84
2017-05-22T07:12:32.532Z,1006.85
2017-05-22T07:14:58.245Z,1006.85
2017-05-22T07:17:23.837Z,1006.78
2017-05-22T07:19:49.347Z,1006.81
2017-05-22T07:22:14.760Z,1006.8
2017-05-22T07:24:40.113Z,1006.81
2017-05-22T07:27:05.421Z,1006.81
2017-05-22T07:29:30.674Z,1006.82
2017-05-22T07:31:47.412Z,1006.79
2017-05-22T07:34:04.161Z,1006.83
2017-05-22T07:36:29.394Z,1006.79
2017-05-22T07:38:54.664Z,1006.81
2017-05-22T07:41:19.959Z,1006.81
2017-05-22T07:43:45.265Z,1006.77
2017-05-22T07:47:47.793Z,1006.8
2017-05-22T07:49:49.970Z,1006.76
2017-05-22T07:52:15.379Z,1006.7
2017-05-22T07:54:40.777Z,1006.65
2017-05-22T07:57:06.146Z,1006.59
2017-05-22T07:59:31.524Z,1006.61
2017-05-22T08:01:48.417Z,1006.52
2017-05-22T08:04:05.316Z,1006.52
2017-05-22T08:06:30.757Z,1006.46
2017-05-22T08:08:56.197Z,1006.48
2017-05-22T08:11:21.609Z,1006.46
2017-05-22T08:13:23.824Z,1006.45
2017-05-22T08:15:49.318Z,1006.45
2017-05-22T08:18:14.795Z,1006.44
2017-05-22T08:20:40.215Z,1006.45
2017-05-22T08:23:05.698Z,1006.46
2017-05-22T08:25:31.120Z,1006.39
2017-05-22T08:27:49.072Z,1006.41
2017-05-22T08:30:05.963Z,1006.45
2017-05-22T08:32:31.423Z,1006.49
2017-05-22T08:34:25.245Z,1006.39
2017-05-22T08:36:36.099Z,1006.37
2017-05-22T08:38:53.097Z,1006.32
2017-05-22T08:41:10.083Z,1006.3
2017-05-22T08:43:27.096Z,1006.31
2017-05-22T08:45:52.634Z,1006.41
2017-05-22T08:48:09.658Z,1006.35
2017-05-22T08:50:35.214Z,1006.41
2017-05-22T08:52:52.229Z,1006.32
2017-05-22T08:55:17.752Z,1006.31
2017-05-22T08:57:43.237Z,1006.26
2017-05-22T09:00:01.200Z,1006.25
2017-05-22T09:02:18.183Z,1006.23
2017-05-22T09:04:43.714Z,1006.23
2017-05-22T09:07:09.264Z,1006.21
2017-05-22T09:09:34.796Z,1006.22
2017-05-22T09:12:00.299Z,1006.29
2017-05-22T09:14:25.819Z,1006.21
2017-05-22T09:16:51.327Z,1006.16
2017-05-22T09:19:16.817Z,1006.13
2017-05-22T09:21:19.087Z,1006.12
2017-05-22T09:23:36.071Z,1006.13
2017-05-22T09:26:01.587Z,1006.1
2017-05-22T09:28:26.988Z,1006.12
2017-05-22T09:30:43.863Z,1006.16
2017-05-22T09:33:09.275Z,1006.1
2017-05-22T09:35:34.746Z,1006.07
2017-05-22T09:38:00.156Z,1006.18
2017-05-22T09:40:25.566Z,1006.07
2017-05-22T09:42:36.496Z,1006.06
2017-05-22T09:44:53.374Z,1006
2017-05-22T09:47:18.796Z,1006.05
2017-05-22T09:49:35.772Z,1006.02
2017-05-22T09:52:01.192Z,1005.96
2017-05-22T09:54:27.554Z,1005.95
2017-05-22T09:56:52.945Z,1006.01
2017-05-22T09:59:18.284Z,1005.91
2017-05-22T10:01:35.110Z,1005.93
2017-05-22T10:04:00.401Z,1005.94
2017-05-22T10:06:25.672Z,1005.92
2017-05-22T10:08:42.396Z,1005.89
2017-05-22T10:11:07.619Z,1005.87
2017-05-22T10:13:32.851Z,1005.78
2017-05-22T10:15:43.621Z,1005.68
2017-05-22T10:18:08.825Z,1005.65
2017-05-22T10:20:33.962Z,1005.83
2017-05-22T10:22:59.037Z,1005.78
2017-05-22T10:25:24.105Z,1005.66
2017-05-22T10:27:49.142Z,1005.71
2017-05-22T10:30:05.656Z,1005.56
2017-05-22T10:32:22.102Z,1005.57
2017-05-22T10:34:46.990Z,1005.66
2017-05-22T10:37:11.864Z,1005.48
2017-05-22T10:39:36.770Z,1005.43
2017-05-22T10:42:01.649Z,1005.47
2017-05-22T10:44:26.534Z,1005.36
2017-05-22T10:46:51.490Z,1005.37
2017-05-22T10:49:16.286Z,1005.35
2017-05-22T10:51:41.186Z,1005.32
2017-05-22T10:54:05.993Z,1005.26
2017-05-22T10:56:30.775Z,1005.35
2017-05-22T10:58:55.510Z,1005.28
2017-05-22T11:01:11.797Z,1005.19
2017-05-22T11:03:13.860Z,1005.25
2017-05-22T11:05:15.897Z,1005.2
2017-05-22T11:07:32.224Z,1005.09
2017-05-22T11:09:56.997Z,1005.19
2017-05-22T11:11:59.074Z,1005.17
2017-05-22T11:14:23.869Z,1005.14
2017-05-22T11:16:48.589Z,1005.15
2017-05-22T11:19:04.861Z,1005.03
2017-05-22T11:21:21.138Z,1005.05
2017-05-22T11:23:45.858Z,1004.99
2017-05-22T11:26:10.594Z,1004.96
2017-05-22T11:28:35.341Z,1004.95
2017-05-22T11:31:00.088Z,1004.97
2017-05-22T11:33:24.860Z,1004.95
2017-05-22T11:35:49.616Z,1004.95
2017-05-22T11:38:14.407Z,1004.96
2017-05-22T11:40:30.718Z,1004.88
2017-05-22T11:42:55.483Z,1004.88
2017-05-22T11:45:20.236Z,1004.87
2017-05-22T11:47:45.018Z,1004.9
2017-05-22T11:50:09.821Z,1004.9
2017-05-22T11:52:34.576Z,1004.84
2017-05-22T11:54:50.897Z,1004.73
2017-05-22T11:57:15.614Z,1004.78
2017-05-22T11:59:26.268Z,1004.79
2017-05-22T12:03:27.411Z,1004.79
2017-05-22T12:05:52.193Z,1004.72
2017-05-22T12:08:08.453Z,1004.75
2017-05-22T12:10:33.215Z,1004.67
2017-05-22T12:12:49.464Z,1004.68
2017-05-22T12:15:14.196Z,1004.61
2017-05-22T12:17:38.967Z,1004.58
2017-05-22T12:20:03.707Z,1004.65
2017-05-22T12:22:28.477Z,1004.59
2017-05-22T12:24:53.285Z,1004.56
2017-05-22T12:27:18.063Z,1004.55
2017-05-22T12:29:42.772Z,1004.61
2017-05-22T12:31:44.832Z,1004.57
2017-05-22T12:33:52.684Z,1004.56
2017-05-22T12:36:17.402Z,1004.56
2017-05-22T12:38:25.185Z,1004.52
2017-05-22T12:40:49.929Z,1004.5
2017-05-22T12:43:14.680Z,1004.46
2017-05-22T12:45:39.439Z,1004.52
2017-05-22T12:48:04.191Z,1004.49
2017-05-22T12:50:28.918Z,1004.48
2017-05-22T12:52:53.682Z,1004.42
2017-05-22T12:55:18.449Z,1004.48
2017-05-22T12:57:43.219Z,1004.45
2017-05-22T13:00:07.968Z,1004.45
2017-05-22T13:02:32.729Z,1004.43
2017-05-22T13:04:49.051Z,1004.38
2017-05-22T13:07:05.346Z,1004.35
2017-05-22T13:09:30.143Z,1004.33
2017-05-22T13:11:54.875Z,1004.3
2017-05-22T13:14:19.676Z,1004.28
2017-05-22T13:16:44.501Z,1004.23
2017-05-22T13:19:09.290Z,1004.2
2017-05-22T13:21:35.047Z,1004.17
2017-05-22T13:23:59.875Z,1004.17
2017-05-22T13:26:24.683Z,1004.16
2017-05-22T13:28:49.524Z,1004.13
2017-05-22T13:31:14.312Z,1004.11
2017-05-22T13:33:39.107Z,1004.12
2017-05-22T13:36:03.909Z,1004.12
2017-05-22T13:38:28.703Z,1004.19
2017-05-22T13:40:39.349Z,1004.08
2017-05-22T13:43:04.127Z,1004.07
2017-05-22T13:45:28.853Z,1004.11
2017-05-22T13:47:53.570Z,1004.04
2017-05-22T13:50:18.244Z,1004.02
2017-05-22T13:52:42.926Z,1003.99
2017-05-22T13:54:59.131Z,1004
2017-05-22T13:57:23.829Z,1003.99
2017-05-22T13:59:48.505Z,1003.96
2017-05-22T14:02:13.189Z,1003.96
2017-05-22T14:04:38.789Z,1003.92
2017-05-22T14:07:03.460Z,1003.93
2017-05-22T14:09:28.125Z,1003.92
2017-05-22T14:11:52.835Z,1003.95
2017-05-22T14:14:17.531Z,1003.93
2017-05-22T14:16:33.756Z,1003.92
2017-05-22T14:18:58.444Z,1003.88
2017-05-22T14:21:23.141Z,1003.84
2017-05-22T14:23:47.840Z,1003.82
2017-05-22T14:26:12.536Z,1003.85
2017-05-22T14:28:23.186Z,1003.85
2017-05-22T14:30:48.070Z,1003.85
2017-05-22T14:32:55.902Z,1003.83
2017-05-22T14:35:20.672Z,1003.78
2017-05-22T14:37:28.502Z,1003.76
2017-05-22T14:39:53.337Z,1003.76
2017-05-22T14:42:09.604Z,1003.73
2017-05-22T14:44:34.370Z,1003.69
2017-05-22T14:46:59.151Z,1003.73
2017-05-22T14:49:24.908Z,1003.66
2017-05-22T14:51:49.654Z,1003.66
2017-05-22T14:54:14.491Z,1003.59
2017-05-22T14:56:30.798Z,1003.54
2017-05-22T14:58:55.486Z,1003.58
2017-05-22T15:01:11.777Z,1003.48
2017-05-22T15:03:13.543Z,1003.5
2017-05-22T15:05:38.355Z,1003.49
2017-05-22T15:08:03.139Z,1003.46
2017-05-22T15:10:27.958Z,1003.43
2017-05-22T15:12:39.579Z,1003.42
2017-05-22T15:15:04.451Z,1003.32
2017-05-22T15:17:29.219Z,1003.24
2017-05-22T15:19:54.041Z,1003.3
2017-05-22T15:22:18.828Z,1003.3
2017-05-22T15:24:43.610Z,1003.29
2017-05-22T15:27:08.425Z,1003.3
2017-05-22T15:29:33.103Z,1003.33
2017-05-22T15:31:57.832Z,1003.3
2017-05-22T15:34:22.616Z,1003.24
2017-05-22T15:36:47.323Z,1003.24
2017-05-22T15:39:12.011Z,1003.22
2017-05-22T15:41:36.812Z,1003.19
2017-05-22T15:44:01.491Z,1003.25
2017-05-22T15:45:54.619Z,1003.17
2017-05-22T15:48:19.353Z,1003.24
2017-05-22T15:50:44.044Z,1003.13
2017-05-22T15:53:08.723Z,1003.19
2017-05-22T15:55:33.426Z,1003.19
2017-05-22T15:57:58.116Z,1003.11
2017-05-22T16:00:22.836Z,1003.11
2017-05-22T16:02:47.528Z,1003.1
2017-05-22T16:05:12.211Z,1003.13
2017-05-22T16:07:28.450Z,1003.13
2017-05-22T16:09:53.117Z,1003.11
2017-05-22T16:12:17.818Z,1003.17
2017-05-22T16:14:42.507Z,1003.14
2017-05-22T16:17:07.206Z,1003.09
2017-05-22T16:19:31.895Z,1003.08
2017-05-22T16:21:56.550Z,1003.09
2017-05-22T16:24:22.211Z,1003.13
2017-05-22T16:26:38.455Z,1003.1
2017-05-22T16:29:03.102Z,1003.09
2017-05-22T16:31:27.779Z,1003.02
2017-05-22T16:33:44.083Z,1003.03
2017-05-22T16:36:10.727Z,1003.07
2017-05-22T16:38:35.451Z,1003.07
2017-05-22T16:41:00.112Z,1003.08
2017-05-22T16:43:24.723Z,1003.01
2017-05-22T16:45:49.304Z,1003.01
2017-05-22T16:48:13.921Z,1003.03
2017-05-22T16:50:38.605Z,1003.05
2017-05-22T16:52:48.677Z,1002.98
2017-05-22T16:55:13.254Z,1002.98
2017-05-22T16:57:37.846Z,1002.96
2017-05-22T16:59:53.968Z,1002.97
2017-05-22T17:02:18.533Z,1002.98
2017-05-22T17:04:34.722Z,1003.06
2017-05-22T17:06:59.322Z,1003.05
2017-05-22T17:09:23.921Z,1003.01
2017-05-22T17:11:50.565Z,1003.04
2017-05-22T17:14:15.164Z,1003.05
2017-05-22T17:16:39.734Z,1003.04
2017-05-22T17:19:04.338Z,1002.98
2017-05-22T17:21:28.939Z,1002.97
2017-05-22T17:24:01.011Z,1002.98
2017-05-22T17:26:25.595Z,1002.92
2017-05-22T17:28:27.075Z,1002.93
2017-05-22T17:30:28.580Z,1002.88
2017-05-22T17:32:53.184Z,1002.89
2017-05-22T17:35:18.723Z,1002.87
2017-05-22T17:37:43.193Z,1002.83
2017-05-22T17:40:07.774Z,1002.92
2017-05-22T17:42:32.282Z,1002.94
2017-05-22T17:44:56.872Z,1002.9
2017-05-22T17:47:12.999Z,1002.92
2017-05-22T17:49:38.146Z,1002.92
2017-05-22T17:51:45.768Z,1002.93
2017-05-22T17:54:10.367Z,1002.94
2017-05-22T17:56:34.960Z,1002.99
2017-05-22T17:58:59.551Z,1002.99
2017-05-22T18:01:24.155Z,1002.97
2017-05-22T18:03:48.636Z,1002.98
2017-05-22T18:05:50.630Z,1002.93
2017-05-22T18:08:15.202Z,1002.92
2017-05-22T18:10:39.786Z,1002.93
2017-05-22T18:12:50.337Z,1002.95
2017-05-22T18:15:06.443Z,1003
2017-05-22T18:17:30.934Z,1002.99
2017-05-22T18:19:55.416Z,1003
2017-05-22T18:22:19.919Z,1003.03
2017-05-22T18:24:44.407Z,1003.08
2017-05-22T18:27:08.907Z,1003.06
2017-05-22T18:29:33.477Z,1003.04
2017-05-22T18:31:57.873Z,1003.04
2017-05-22T18:34:23.411Z,1003
2017-05-22T18:36:33.458Z,1002.98
2017-05-22T18:38:57.977Z,1002.98
2017-05-22T18:41:22.425Z,1002.97
2017-05-22T18:43:46.908Z,1002.96
2017-05-22T18:46:11.415Z,1002.94
2017-05-22T18:48:35.798Z,1002.93
2017-05-22T18:51:00.286Z,1002.93
2017-05-22T18:53:24.777Z,1002.94
2017-05-22T18:55:49.259Z,1002.94
2017-05-22T18:58:13.658Z,1002.93
2017-05-22T19:00:39.077Z,1002.89
2017-05-22T19:03:03.569Z,1002.98
2017-05-22T19:05:27.977Z,1003
2017-05-22T19:07:43.904Z,1002.99
2017-05-22T19:10:08.335Z,1003.05
2017-05-22T19:12:32.716Z,1003.1
2017-05-22T19:14:57.179Z,1003.13
2017-05-22T19:17:22.518Z,1003.15
2017-05-22T19:19:33.058Z,1003.16
2017-05-22T19:21:57.453Z,1003.16
2017-05-22T19:24:13.400Z,1003.16
2017-05-22T19:26:29.354Z,1003.2
2017-05-22T19:28:53.741Z,1003.27
2017-05-22T19:31:18.113Z,1003.28
2017-05-22T19:33:44.762Z,1003.34
2017-05-22T19:36:09.162Z,1003.27
2017-05-22T19:38:40.443Z,1003.27
2017-05-22T19:41:04.795Z,1003.33
2017-05-22T19:43:35.864Z,1003.34
2017-05-22T19:46:08.179Z,1003.35
2017-05-22T19:48:32.500Z,1003.4
2017-05-22T19:50:58.086Z,1003.46
2017-05-22T19:56:01.334Z,1003.48
2017-05-22T20:00:41.126Z,1003.46
2017-05-22T20:02:51.820Z,1003.47
2017-05-22T20:05:16.613Z,1003.5
2017-05-22T20:07:26.614Z,1003.53
2017-05-22T20:09:28.734Z,1003.55
2017-05-22T20:11:53.201Z,1003.56
2017-05-22T20:14:09.078Z,1003.59
2017-05-22T20:16:33.377Z,1003.56
2017-05-22T20:18:49.275Z,1003.55
2017-05-22T20:21:13.627Z,1003.6
2017-05-22T20:23:38.047Z,1003.67
2017-05-22T20:25:53.853Z,1003.64
2017-05-22T20:28:18.203Z,1003.7
2017-05-22T20:30:42.480Z,1003.72
2017-05-22T20:32:44.418Z,1003.75
2017-05-22T20:35:08.739Z,1003.74
2017-05-22T20:37:33.027Z,1003.71
2017-05-22T20:39:57.310Z,1003.7
2017-05-22T20:42:21.574Z,1003.7
2017-05-22T20:44:45.895Z,1003.71
2017-05-22T20:47:10.163Z,1003.72
2017-05-22T20:49:34.452Z,1003.74
2017-05-22T20:51:58.735Z,1003.78
2017-05-22T20:54:23.024Z,1003.8
2017-05-22T20:56:47.215Z,1003.82
2017-05-22T20:59:11.489Z,1003.78
2017-05-22T21:01:35.773Z,1003.79
2017-05-22T21:03:59.956Z,1003.81
2017-05-22T21:06:24.240Z,1003.82
2017-05-22T21:08:48.514Z,1003.84
2017-05-22T21:11:12.825Z,1003.89
2017-05-22T21:13:37.008Z,1003.89
2017-05-22T21:16:01.192Z,1003.89
2017-05-22T21:18:25.369Z,1003.86
2017-05-22T21:20:18.414Z,1003.85
2017-05-22T21:22:42.616Z,1003.85
2017-05-22T21:25:06.798Z,1003.81
2017-05-22T21:27:30.970Z,1003.78
2017-05-22T21:29:55.158Z,1003.78
2017-05-22T21:32:19.353Z,1003.78
2017-05-22T21:34:29.330Z,1003.79
2017-05-22T21:36:45.138Z,1003.8
2017-05-22T21:39:09.362Z,1003.79
2017-05-22T21:41:33.556Z,1003.75
2017-05-22T21:43:57.734Z,1003.68
2017-05-22T21:46:13.408Z,1003.7
2017-05-22T21:48:37.503Z,1003.67
2017-05-22T21:50:53.279Z,1003.72
2017-05-22T21:53:17.479Z,1003.68
2017-05-22T21:55:41.646Z,1003.64
2017-05-22T21:57:57.401Z,1003.64
2017-05-22T22:00:21.611Z,1003.64
2017-05-22T22:02:45.814Z,1003.63
2017-05-22T22:05:09.985Z,1003.67
2017-05-22T22:07:34.201Z,1003.7
2017-05-22T22:09:49.964Z,1003.71
2017-05-22T22:12:14.136Z,1003.7
2017-05-22T22:14:38.339Z,1003.7
2017-05-22T22:16:53.999Z,1003.69
2017-05-22T22:19:18.193Z,1003.68
2017-05-22T22:21:33.942Z,1003.68
2017-05-22T22:23:58.058Z,1003.7
2017-05-22T22:26:22.249Z,1003.69
2017-05-22T22:28:46.435Z,1003.66
2017-05-22T22:31:10.618Z,1003.65
2017-05-22T22:33:12.117Z,1003.6
2017-05-22T22:35:36.257Z,1003.63
2017-05-22T22:38:00.439Z,1003.73
2017-05-22T22:40:24.617Z,1003.74
2017-05-22T22:42:48.810Z,1003.76
2017-05-22T22:45:12.894Z,1003.82
2017-05-22T22:47:37.084Z,1003.79
2017-05-22T22:50:01.255Z,1003.83
2017-05-22T22:52:11.372Z,1003.85
2017-05-22T22:54:35.601Z,1003.82
2017-05-22T22:56:59.784Z,1003.82
2017-05-22T22:59:15.530Z,1003.82
2017-05-22T23:01:39.657Z,1003.89
2017-05-22T23:03:55.330Z,1003.84
2017-05-22T23:06:19.415Z,1003.87
2017-05-22T23:08:29.409Z,1003.88
2017-05-22T23:10:53.544Z,1003.87
2017-05-22T23:13:09.292Z,1003.88
2017-05-22T23:15:33.421Z,1003.9
2017-05-22T23:17:57.592Z,1003.83
2017-05-22T23:20:21.680Z,1003.85
2017-05-22T23:22:45.747Z,1003.77
2017-05-22T23:25:01.410Z,1003.81
2017-05-22T23:27:25.526Z,1003.82
2017-05-22T23:29:49.603Z,1003.79
2017-05-22T23:32:13.715Z,1003.77
2017-05-22T23:34:37.874Z,1003.76
2017-05-22T23:37:01.963Z,1003.79
2017-05-22T23:39:26.049Z,1003.76
2017-05-22T23:41:50.116Z,1003.76
2017-05-22T23:44:14.209Z,1003.74
2017-05-22T23:46:38.292Z,1003.73
2017-05-22T23:48:48.209Z,1003.65
2017-05-22T23:51:12.330Z,1003.68
2017-05-22T23:53:27.974Z,1003.68
2017-05-22T23:55:52.084Z,1003.65
2017-05-22T23:58:16.172Z,1003.64
